sensor_id;sensor_type;location;lat;lon;timestamp;P1;durP1;ratioP1;P2;durP2;ratioP2
36597;SDS011;22607;49.550;11.940;2023-05-07T00:02:06;7.25;;;2.83;;
36597;SDS011;22607;49.550;11.940;2023-05-07T00:04:33;6.93;;;2.90;;
36597;SDS011;22607;49.550;11.940;2023-05-07T00:07:03;7.03;;;2.92;;
36597;SDS011;22607;49.550;11.940;2023-05-07T00:09:40;8.20;;;2.95;;
36597;SDS011;22607;49.550;11.940;2023-05-07T00:12:07;7.30;;;3.00;;
36597;SDS011;22607;49.550;11.940;2023-05-07T00:14:33;8.80;;;3.70;;
36597;SDS011;22607;49.550;11.940;2023-05-07T00:17:00;8.43;;;3.92;;
36597;SDS011;22607;49.550;11.940;2023-05-07T00:19:39;10.13;;;3.75;;
36597;SDS011;22607;49.550;11.940;2023-05-07T00:22:06;7.72;;;3.25;;
36597;SDS011;22607;49.550;11.940;2023-05-07T00:24:34;8.10;;;3.20;;
36597;SDS011;22607;49.550;11.940;2023-05-07T00:27:00;8.07;;;4.13;;
36597;SDS011;22607;49.550;11.940;2023-05-07T00:29:27;8.65;;;3.97;;
36597;SDS011;22607;49.550;11.940;2023-05-07T00:31:55;8.23;;;3.55;;
36597;SDS011;22607;49.550;11.940;2023-05-07T00:34:22;8.75;;;4.10;;
36597;SDS011;22607;49.550;11.940;2023-05-07T00:36:48;9.75;;;5.10;;
36597;SDS011;22607;49.550;11.940;2023-05-07T00:39:21;11.82;;;4.90;;
36597;SDS011;22607;49.550;11.940;2023-05-07T00:41:47;10.18;;;4.25;;
36597;SDS011;22607;49.550;11.940;2023-05-07T00:44:18;10.38;;;4.53;;
36597;SDS011;22607;49.550;11.940;2023-05-07T00:46:44;9.18;;;4.60;;
36597;SDS011;22607;49.550;11.940;2023-05-07T00:49:12;8.38;;;4.20;;
36597;SDS011;22607;49.550;11.940;2023-05-07T00:51:39;8.85;;;4.13;;
36597;SDS011;22607;49.550;11.940;2023-05-07T00:54:05;10.13;;;4.80;;
36597;SDS011;22607;49.550;11.940;2023-05-07T00:56:32;9.35;;;4.72;;
36597;SDS011;22607;49.550;11.940;2023-05-07T00:59:06;9.68;;;4.90;;
36597;SDS011;22607;49.550;11.940;2023-05-07T01:01:34;9.07;;;4.45;;
36597;SDS011;22607;49.550;11.940;2023-05-07T01:04:01;9.07;;;4.65;;
36597;SDS011;22607;49.550;11.940;2023-05-07T01:06:28;9.80;;;4.93;;
36597;SDS011;22607;49.550;11.940;2023-05-07T01:08:57;10.45;;;5.47;;
36597;SDS011;22607;49.550;11.940;2023-05-07T01:11:24;10.45;;;5.45;;
36597;SDS011;22607;49.550;11.940;2023-05-07T01:13:55;9.35;;;4.90;;
36597;SDS011;22607;49.550;11.940;2023-05-07T01:16:25;10.80;;;5.45;;
36597;SDS011;22607;49.550;11.940;2023-05-07T01:18:53;10.43;;;5.22;;
36597;SDS011;22607;49.550;11.940;2023-05-07T01:21:19;11.13;;;5.00;;
36597;SDS011;22607;49.550;11.940;2023-05-07T01:23:53;9.27;;;4.90;;
36597;SDS011;22607;49.550;11.940;2023-05-07T01:26:20;9.55;;;4.88;;
36597;SDS011;22607;49.550;11.940;2023-05-07T01:28:48;11.00;;;5.22;;
36597;SDS011;22607;49.550;11.940;2023-05-07T01:31:14;9.07;;;5.03;;
36597;SDS011;22607;49.550;11.940;2023-05-07T01:33:43;10.43;;;5.13;;
36597;SDS011;22607;49.550;11.940;2023-05-07T01:36:11;9.93;;;5.45;;
36597;SDS011;22607;49.550;11.940;2023-05-07T01:38:40;9.68;;;5.40;;
36597;SDS011;22607;49.550;11.940;2023-05-07T01:41:08;10.68;;;5.28;;
36597;SDS011;22607;49.550;11.940;2023-05-07T01:43:35;11.48;;;5.97;;
36597;SDS011;22607;49.550;11.940;2023-05-07T01:46:01;11.88;;;5.40;;
36597;SDS011;22607;49.550;11.940;2023-05-07T01:48:30;11.75;;;5.78;;
36597;SDS011;22607;49.550;11.940;2023-05-07T01:50:57;10.27;;;5.20;;
36597;SDS011;22607;49.550;11.940;2023-05-07T01:53:26;8.95;;;4.32;;
36597;SDS011;22607;49.550;11.940;2023-05-07T01:55:53;9.73;;;4.78;;
36597;SDS011;22607;49.550;11.940;2023-05-07T01:58:20;9.77;;;5.05;;
36597;SDS011;22607;49.550;11.940;2023-05-07T02:00:57;9.85;;;5.13;;
36597;SDS011;22607;49.550;11.940;2023-05-07T02:03:23;11.45;;;5.40;;
36597;SDS011;22607;49.550;11.940;2023-05-07T02:05:50;10.05;;;5.05;;
36597;SDS011;22607;49.550;11.940;2023-05-07T02:08:17;9.88;;;5.15;;
36597;SDS011;22607;49.550;11.940;2023-05-07T02:10:44;11.27;;;5.32;;
36597;SDS011;22607;49.550;11.940;2023-05-07T02:13:10;9.18;;;4.72;;
36597;SDS011;22607;49.550;11.940;2023-05-07T02:15:37;9.70;;;4.90;;
36597;SDS011;22607;49.550;11.940;2023-05-07T02:18:04;10.32;;;5.50;;
36597;SDS011;22607;49.550;11.940;2023-05-07T02:20:38;11.68;;;5.82;;
36597;SDS011;22607;49.550;11.940;2023-05-07T02:23:05;10.30;;;5.15;;
36597;SDS011;22607;49.550;11.940;2023-05-07T02:25:32;11.15;;;5.85;;
36597;SDS011;22607;49.550;11.940;2023-05-07T02:27:59;10.18;;;5.28;;
36597;SDS011;22607;49.550;11.940;2023-05-07T02:30:25;10.27;;;5.03;;
36597;SDS011;22607;49.550;11.940;2023-05-07T02:35:29;9.50;;;4.35;;
36597;SDS011;22607;49.550;11.940;2023-05-07T02:37:56;10.98;;;4.50;;
36597;SDS011;22607;49.550;11.940;2023-05-07T02:40:23;10.80;;;5.35;;
36597;SDS011;22607;49.550;11.940;2023-05-07T02:42:49;10.60;;;5.03;;
36597;SDS011;22607;49.550;11.940;2023-05-07T02:45:16;10.38;;;5.63;;
36597;SDS011;22607;49.550;11.940;2023-05-07T02:47:42;10.77;;;5.30;;
36597;SDS011;22607;49.550;11.940;2023-05-07T02:50:15;9.63;;;5.13;;
36597;SDS011;22607;49.550;11.940;2023-05-07T02:52:41;9.07;;;4.65;;
36597;SDS011;22607;49.550;11.940;2023-05-07T02:55:08;11.30;;;6.30;;
36597;SDS011;22607;49.550;11.940;2023-05-07T02:57:34;11.95;;;6.07;;
36597;SDS011;22607;49.550;11.940;2023-05-07T03:00:09;10.40;;;5.43;;
36597;SDS011;22607;49.550;11.940;2023-05-07T03:02:45;10.65;;;5.65;;
36597;SDS011;22607;49.550;11.940;2023-05-07T03:05:12;13.07;;;5.97;;
36597;SDS011;22607;49.550;11.940;2023-05-07T03:07:38;10.70;;;5.43;;
36597;SDS011;22607;49.550;11.940;2023-05-07T03:10:05;11.45;;;5.40;;
36597;SDS011;22607;49.550;11.940;2023-05-07T03:12:32;10.48;;;5.43;;
36597;SDS011;22607;49.550;11.940;2023-05-07T03:14:59;9.88;;;5.15;;
36597;SDS011;22607;49.550;11.940;2023-05-07T03:17:25;10.45;;;4.95;;
36597;SDS011;22607;49.550;11.940;2023-05-07T03:19:52;10.55;;;5.60;;
36597;SDS011;22607;49.550;11.940;2023-05-07T03:22:19;10.20;;;5.32;;
36597;SDS011;22607;49.550;11.940;2023-05-07T03:27:16;10.27;;;5.55;;
36597;SDS011;22607;49.550;11.940;2023-05-07T03:29:50;9.43;;;5.75;;
36597;SDS011;22607;49.550;11.940;2023-05-07T03:32:17;12.52;;;5.90;;
36597;SDS011;22607;49.550;11.940;2023-05-07T03:34:43;10.20;;;5.43;;
36597;SDS011;22607;49.550;11.940;2023-05-07T03:37:10;10.70;;;5.93;;
36597;SDS011;22607;49.550;11.940;2023-05-07T03:39:37;12.45;;;7.10;;
36597;SDS011;22607;49.550;11.940;2023-05-07T03:42:04;11.40;;;6.43;;
36597;SDS011;22607;49.550;11.940;2023-05-07T03:47:03;10.98;;;5.90;;
36597;SDS011;22607;49.550;11.940;2023-05-07T03:49:30;12.82;;;5.80;;
36597;SDS011;22607;49.550;11.940;2023-05-07T03:52:02;10.00;;;4.75;;
36597;SDS011;22607;49.550;11.940;2023-05-07T03:54:29;13.43;;;5.60;;
36597;SDS011;22607;49.550;11.940;2023-05-07T03:56:56;11.05;;;5.40;;
36597;SDS011;22607;49.550;11.940;2023-05-07T03:59:23;10.27;;;5.65;;
36597;SDS011;22607;49.550;11.940;2023-05-07T04:01:49;11.35;;;5.13;;
36597;SDS011;22607;49.550;11.940;2023-05-07T04:04:16;11.35;;;5.40;;
36597;SDS011;22607;49.550;11.940;2023-05-07T04:06:43;10.15;;;5.75;;
36597;SDS011;22607;49.550;11.940;2023-05-07T04:09:09;12.02;;;6.50;;
36597;SDS011;22607;49.550;11.940;2023-05-07T04:11:36;11.43;;;5.70;;
36597;SDS011;22607;49.550;11.940;2023-05-07T04:14:02;11.05;;;6.18;;
36597;SDS011;22607;49.550;11.940;2023-05-07T04:16:31;11.77;;;6.72;;
36597;SDS011;22607;49.550;11.940;2023-05-07T04:18:58;10.90;;;5.53;;
36597;SDS011;22607;49.550;11.940;2023-05-07T04:21:24;12.48;;;5.78;;
36597;SDS011;22607;49.550;11.940;2023-05-07T04:23:52;12.23;;;6.85;;
36597;SDS011;22607;49.550;11.940;2023-05-07T04:26:18;10.55;;;5.90;;
36597;SDS011;22607;49.550;11.940;2023-05-07T04:28:45;10.50;;;5.63;;
36597;SDS011;22607;49.550;11.940;2023-05-07T04:31:11;12.00;;;6.75;;
36597;SDS011;22607;49.550;11.940;2023-05-07T04:33:38;19.77;;;6.65;;
36597;SDS011;22607;49.550;11.940;2023-05-07T04:36:04;11.93;;;6.63;;
36597;SDS011;22607;49.550;11.940;2023-05-07T04:38:33;12.23;;;6.25;;
36597;SDS011;22607;49.550;11.940;2023-05-07T04:41:03;12.73;;;6.35;;
36597;SDS011;22607;49.550;11.940;2023-05-07T04:43:31;12.68;;;6.03;;
36597;SDS011;22607;49.550;11.940;2023-05-07T04:45:58;12.93;;;6.60;;
36597;SDS011;22607;49.550;11.940;2023-05-07T04:48:25;11.82;;;6.40;;
36597;SDS011;22607;49.550;11.940;2023-05-07T04:50:52;11.98;;;6.30;;
36597;SDS011;22607;49.550;11.940;2023-05-07T04:53:19;10.77;;;6.35;;
36597;SDS011;22607;49.550;11.940;2023-05-07T04:55:46;11.23;;;6.30;;
36597;SDS011;22607;49.550;11.940;2023-05-07T04:58:14;10.82;;;6.38;;
36597;SDS011;22607;49.550;11.940;2023-05-07T05:00:41;13.32;;;7.75;;
36597;SDS011;22607;49.550;11.940;2023-05-07T05:03:15;11.00;;;6.40;;
36597;SDS011;22607;49.550;11.940;2023-05-07T05:05:42;13.93;;;7.55;;
36597;SDS011;22607;49.550;11.940;2023-05-07T05:08:08;12.80;;;7.40;;
36597;SDS011;22607;49.550;11.940;2023-05-07T05:10:35;13.00;;;6.93;;
36597;SDS011;22607;49.550;11.940;2023-05-07T05:13:01;12.40;;;6.93;;
36597;SDS011;22607;49.550;11.940;2023-05-07T05:15:30;13.57;;;7.28;;
36597;SDS011;22607;49.550;11.940;2023-05-07T05:17:59;13.70;;;9.10;;
36597;SDS011;22607;49.550;11.940;2023-05-07T05:20:25;13.75;;;8.65;;
36597;SDS011;22607;49.550;11.940;2023-05-07T05:22:52;12.80;;;7.97;;
36597;SDS011;22607;49.550;11.940;2023-05-07T05:25:18;13.82;;;7.90;;
36597;SDS011;22607;49.550;11.940;2023-05-07T05:27:45;11.65;;;6.80;;
36597;SDS011;22607;49.550;11.940;2023-05-07T05:30:12;13.40;;;7.20;;
36597;SDS011;22607;49.550;11.940;2023-05-07T05:32:39;13.10;;;7.80;;
36597;SDS011;22607;49.550;11.940;2023-05-07T05:35:05;12.40;;;7.60;;
36597;SDS011;22607;49.550;11.940;2023-05-07T05:37:32;14.75;;;9.05;;
36597;SDS011;22607;49.550;11.940;2023-05-07T05:39:59;12.98;;;7.63;;
36597;SDS011;22607;49.550;11.940;2023-05-07T05:44:56;14.68;;;9.48;;
36597;SDS011;22607;49.550;11.940;2023-05-07T05:47:23;14.13;;;7.90;;
36597;SDS011;22607;49.550;11.940;2023-05-07T05:49:49;14.20;;;8.45;;
36597;SDS011;22607;49.550;11.940;2023-05-07T05:52:16;15.85;;;9.00;;
36597;SDS011;22607;49.550;11.940;2023-05-07T05:54:43;13.70;;;8.02;;
36597;SDS011;22607;49.550;11.940;2023-05-07T05:57:09;12.68;;;8.45;;
36597;SDS011;22607;49.550;11.940;2023-05-07T05:59:37;14.13;;;7.68;;
36597;SDS011;22607;49.550;11.940;2023-05-07T06:02:03;12.43;;;7.60;;
36597;SDS011;22607;49.550;11.940;2023-05-07T06:04:32;14.23;;;7.72;;
36597;SDS011;22607;49.550;11.940;2023-05-07T06:06:58;14.20;;;8.38;;
36597;SDS011;22607;49.550;11.940;2023-05-07T06:09:25;13.38;;;8.60;;
36597;SDS011;22607;49.550;11.940;2023-05-07T06:11:51;13.82;;;8.90;;
36597;SDS011;22607;49.550;11.940;2023-05-07T06:14:24;15.77;;;9.55;;
36597;SDS011;22607;49.550;11.940;2023-05-07T06:16:51;14.70;;;8.50;;
36597;SDS011;22607;49.550;11.940;2023-05-07T06:19:18;15.50;;;9.05;;
36597;SDS011;22607;49.550;11.940;2023-05-07T06:24:21;14.07;;;8.35;;
36597;SDS011;22607;49.550;11.940;2023-05-07T06:29:15;14.30;;;8.35;;
36597;SDS011;22607;49.550;11.940;2023-05-07T06:31:42;15.38;;;9.30;;
36597;SDS011;22607;49.550;11.940;2023-05-07T06:34:09;14.10;;;9.05;;
36597;SDS011;22607;49.550;11.940;2023-05-07T06:36:36;13.93;;;7.97;;
36597;SDS011;22607;49.550;11.940;2023-05-07T06:39:02;13.82;;;8.65;;
36597;SDS011;22607;49.550;11.940;2023-05-07T06:41:29;14.40;;;8.05;;
36597;SDS011;22607;49.550;11.940;2023-05-07T06:43:55;14.38;;;8.82;;
36597;SDS011;22607;49.550;11.940;2023-05-07T06:46:22;14.15;;;9.07;;
36597;SDS011;22607;49.550;11.940;2023-05-07T06:48:48;14.40;;;8.32;;
36597;SDS011;22607;49.550;11.940;2023-05-07T06:51:15;13.95;;;8.85;;
36597;SDS011;22607;49.550;11.940;2023-05-07T06:53:43;14.90;;;8.43;;
36597;SDS011;22607;49.550;11.940;2023-05-07T06:56:10;13.68;;;7.88;;
36597;SDS011;22607;49.550;11.940;2023-05-07T06:58:44;13.88;;;7.95;;
36597;SDS011;22607;49.550;11.940;2023-05-07T07:01:11;13.68;;;7.72;;
36597;SDS011;22607;49.550;11.940;2023-05-07T07:03:39;13.50;;;7.65;;
36597;SDS011;22607;49.550;11.940;2023-05-07T07:06:06;15.65;;;9.40;;
36597;SDS011;22607;49.550;11.940;2023-05-07T07:08:34;13.13;;;7.75;;
36597;SDS011;22607;49.550;11.940;2023-05-07T07:11:00;15.50;;;7.95;;
36597;SDS011;22607;49.550;11.940;2023-05-07T07:13:33;14.55;;;7.95;;
36597;SDS011;22607;49.550;11.940;2023-05-07T07:15:59;14.43;;;8.32;;
36597;SDS011;22607;49.550;11.940;2023-05-07T07:18:26;12.60;;;7.82;;
36597;SDS011;22607;49.550;11.940;2023-05-07T07:20:53;13.73;;;7.72;;
36597;SDS011;22607;49.550;11.940;2023-05-07T07:23:20;13.20;;;7.80;;
36597;SDS011;22607;49.550;11.940;2023-05-07T07:25:46;13.40;;;8.57;;
36597;SDS011;22607;49.550;11.940;2023-05-07T07:28:15;12.90;;;8.80;;
36597;SDS011;22607;49.550;11.940;2023-05-07T07:30:50;16.48;;;9.43;;
36597;SDS011;22607;49.550;11.940;2023-05-07T07:33:16;14.93;;;9.70;;
36597;SDS011;22607;49.550;11.940;2023-05-07T07:35:43;14.40;;;8.63;;
36597;SDS011;22607;49.550;11.940;2023-05-07T07:38:09;14.93;;;8.50;;
36597;SDS011;22607;49.550;11.940;2023-05-07T07:40:36;15.20;;;9.07;;
36597;SDS011;22607;49.550;11.940;2023-05-07T07:43:03;14.68;;;9.20;;
36597;SDS011;22607;49.550;11.940;2023-05-07T07:45:36;14.05;;;8.63;;
36597;SDS011;22607;49.550;11.940;2023-05-07T07:48:03;14.27;;;8.90;;
36597;SDS011;22607;49.550;11.940;2023-05-07T07:50:32;15.82;;;9.07;;
36597;SDS011;22607;49.550;11.940;2023-05-07T07:53:10;13.90;;;8.38;;
36597;SDS011;22607;49.550;11.940;2023-05-07T07:55:38;13.43;;;8.40;;
36597;SDS011;22607;49.550;11.940;2023-05-07T07:58:09;14.10;;;7.93;;
36597;SDS011;22607;49.550;11.940;2023-05-07T08:00:36;13.50;;;8.50;;
36597;SDS011;22607;49.550;11.940;2023-05-07T08:03:02;14.35;;;9.00;;
36597;SDS011;22607;49.550;11.940;2023-05-07T08:05:29;12.88;;;6.55;;
36597;SDS011;22607;49.550;11.940;2023-05-07T08:07:56;12.70;;;7.28;;
36597;SDS011;22607;49.550;11.940;2023-05-07T08:10:22;13.30;;;7.97;;
36597;SDS011;22607;49.550;11.940;2023-05-07T08:12:49;13.98;;;7.90;;
36597;SDS011;22607;49.550;11.940;2023-05-07T08:15:17;15.45;;;8.75;;
36597;SDS011;22607;49.550;11.940;2023-05-07T08:17:44;14.13;;;7.90;;
36597;SDS011;22607;49.550;11.940;2023-05-07T08:20:11;13.00;;;8.23;;
36597;SDS011;22607;49.550;11.940;2023-05-07T08:22:43;15.05;;;8.48;;
36597;SDS011;22607;49.550;11.940;2023-05-07T08:25:12;14.23;;;7.88;;
36597;SDS011;22607;49.550;11.940;2023-05-07T08:27:38;13.20;;;7.13;;
36597;SDS011;22607;49.550;11.940;2023-05-07T08:30:05;14.65;;;8.23;;
36597;SDS011;22607;49.550;11.940;2023-05-07T08:32:32;13.60;;;8.38;;
36597;SDS011;22607;49.550;11.940;2023-05-07T08:34:59;12.20;;;7.53;;
36597;SDS011;22607;49.550;11.940;2023-05-07T08:37:27;12.23;;;6.95;;
36597;SDS011;22607;49.550;11.940;2023-05-07T08:39:53;13.70;;;7.70;;
36597;SDS011;22607;49.550;11.940;2023-05-07T08:42:23;13.05;;;8.02;;
36597;SDS011;22607;49.550;11.940;2023-05-07T08:44:51;13.13;;;7.40;;
36597;SDS011;22607;49.550;11.940;2023-05-07T08:47:23;13.47;;;8.10;;
36597;SDS011;22607;49.550;11.940;2023-05-07T08:49:56;12.48;;;7.53;;
36597;SDS011;22607;49.550;11.940;2023-05-07T08:52:22;12.32;;;7.50;;
36597;SDS011;22607;49.550;11.940;2023-05-07T08:54:49;11.30;;;6.65;;
36597;SDS011;22607;49.550;11.940;2023-05-07T08:57:16;11.70;;;6.50;;
36597;SDS011;22607;49.550;11.940;2023-05-07T08:59:42;11.55;;;6.53;;
36597;SDS011;22607;49.550;11.940;2023-05-07T09:02:09;11.43;;;6.60;;
36597;SDS011;22607;49.550;11.940;2023-05-07T09:04:37;13.88;;;6.97;;
36597;SDS011;22607;49.550;11.940;2023-05-07T09:07:04;12.32;;;6.80;;
36597;SDS011;22607;49.550;11.940;2023-05-07T09:09:34;10.95;;;6.57;;
36597;SDS011;22607;49.550;11.940;2023-05-07T09:12:01;12.38;;;7.63;;
36597;SDS011;22607;49.550;11.940;2023-05-07T09:17:03;12.02;;;6.15;;
36597;SDS011;22607;49.550;11.940;2023-05-07T09:19:30;10.52;;;6.35;;
36597;SDS011;22607;49.550;11.940;2023-05-07T09:21:57;11.13;;;6.32;;
36597;SDS011;22607;49.550;11.940;2023-05-07T09:24:26;10.93;;;6.38;;
36597;SDS011;22607;49.550;11.940;2023-05-07T09:27:00;13.35;;;6.10;;
36597;SDS011;22607;49.550;11.940;2023-05-07T09:29:43;12.07;;;6.65;;
36597;SDS011;22607;49.550;11.940;2023-05-07T09:32:10;11.90;;;6.57;;
36597;SDS011;22607;49.550;11.940;2023-05-07T09:34:36;11.32;;;6.30;;
36597;SDS011;22607;49.550;11.940;2023-05-07T09:37:03;11.55;;;6.78;;
36597;SDS011;22607;49.550;11.940;2023-05-07T09:39:42;12.05;;;6.38;;
36597;SDS011;22607;49.550;11.940;2023-05-07T09:42:13;11.38;;;6.68;;
36597;SDS011;22607;49.550;11.940;2023-05-07T09:44:43;11.35;;;6.18;;
36597;SDS011;22607;49.550;11.940;2023-05-07T09:47:10;11.27;;;5.88;;
36597;SDS011;22607;49.550;11.940;2023-05-07T09:49:38;10.95;;;6.15;;
36597;SDS011;22607;49.550;11.940;2023-05-07T09:52:06;11.98;;;6.85;;
36597;SDS011;22607;49.550;11.940;2023-05-07T09:54:35;11.27;;;6.95;;
36597;SDS011;22607;49.550;11.940;2023-05-07T09:57:05;10.68;;;5.95;;
36597;SDS011;22607;49.550;11.940;2023-05-07T09:59:33;15.27;;;8.80;;
36597;SDS011;22607;49.550;11.940;2023-05-07T10:02:02;12.40;;;6.82;;
36597;SDS011;22607;49.550;11.940;2023-05-07T10:04:30;10.18;;;5.75;;
36597;SDS011;22607;49.550;11.940;2023-05-07T10:06:58;11.43;;;6.78;;
36597;SDS011;22607;49.550;11.940;2023-05-07T10:09:26;10.35;;;5.80;;
36597;SDS011;22607;49.550;11.940;2023-05-07T10:11:58;9.88;;;5.75;;
36597;SDS011;22607;49.550;11.940;2023-05-07T10:14:25;10.85;;;6.70;;
36597;SDS011;22607;49.550;11.940;2023-05-07T10:16:55;10.70;;;6.43;;
36597;SDS011;22607;49.550;11.940;2023-05-07T10:19:22;10.48;;;6.43;;
36597;SDS011;22607;49.550;11.940;2023-05-07T10:21:56;10.75;;;5.50;;
36597;SDS011;22607;49.550;11.940;2023-05-07T10:24:34;11.05;;;5.20;;
36597;SDS011;22607;49.550;11.940;2023-05-07T10:27:10;12.40;;;6.38;;
36597;SDS011;22607;49.550;11.940;2023-05-07T10:35:03;11.23;;;5.55;;
36597;SDS011;22607;49.550;11.940;2023-05-07T10:37:33;11.38;;;5.97;;
36597;SDS011;22607;49.550;11.940;2023-05-07T10:40:00;9.98;;;5.60;;
36597;SDS011;22607;49.550;11.940;2023-05-07T10:42:27;9.88;;;5.53;;
36597;SDS011;22607;49.550;11.940;2023-05-07T10:44:54;10.80;;;5.90;;
36597;SDS011;22607;49.550;11.940;2023-05-07T10:47:21;9.32;;;5.00;;
36597;SDS011;22607;49.550;11.940;2023-05-07T10:52:20;10.77;;;4.90;;
36597;SDS011;22607;49.550;11.940;2023-05-07T10:54:47;10.27;;;5.60;;
36597;SDS011;22607;49.550;11.940;2023-05-07T10:57:43;8.88;;;4.68;;
36597;SDS011;22607;49.550;11.940;2023-05-07T11:05:26;9.30;;;5.05;;
36597;SDS011;22607;49.550;11.940;2023-05-07T11:08:01;8.68;;;4.50;;
36597;SDS011;22607;49.550;11.940;2023-05-07T11:10:51;9.30;;;4.88;;
36597;SDS011;22607;49.550;11.940;2023-05-07T11:13:43;9.80;;;4.38;;
36597;SDS011;22607;49.550;11.940;2023-05-07T11:16:20;9.30;;;4.55;;
36597;SDS011;22607;49.550;11.940;2023-05-07T11:18:52;7.68;;;3.50;;
36597;SDS011;22607;49.550;11.940;2023-05-07T11:21:38;9.65;;;5.05;;
36597;SDS011;22607;49.550;11.940;2023-05-07T11:24:07;9.63;;;5.00;;
36597;SDS011;22607;49.550;11.940;2023-05-07T11:26:46;9.77;;;5.10;;
36597;SDS011;22607;49.550;11.940;2023-05-07T11:29:20;9.00;;;4.68;;
36597;SDS011;22607;49.550;11.940;2023-05-07T11:31:52;9.80;;;4.68;;
36597;SDS011;22607;49.550;11.940;2023-05-07T11:34:25;8.82;;;4.40;;
36597;SDS011;22607;49.550;11.940;2023-05-07T11:36:55;9.52;;;4.90;;
36597;SDS011;22607;49.550;11.940;2023-05-07T11:41:55;8.95;;;4.72;;
36597;SDS011;22607;49.550;11.940;2023-05-07T11:44:22;9.35;;;4.32;;
36597;SDS011;22607;49.550;11.940;2023-05-07T11:46:48;10.25;;;4.85;;
36597;SDS011;22607;49.550;11.940;2023-05-07T11:49:20;8.75;;;4.47;;
36597;SDS011;22607;49.550;11.940;2023-05-07T11:51:46;9.90;;;4.28;;
36597;SDS011;22607;49.550;11.940;2023-05-07T11:54:17;10.50;;;5.22;;
36597;SDS011;22607;49.550;11.940;2023-05-07T11:56:43;10.10;;;4.25;;
36597;SDS011;22607;49.550;11.940;2023-05-07T11:59:11;9.75;;;3.85;;
36597;SDS011;22607;49.550;11.940;2023-05-07T12:01:37;10.02;;;4.13;;
36597;SDS011;22607;49.550;11.940;2023-05-07T12:04:04;8.93;;;4.25;;
36597;SDS011;22607;49.550;11.940;2023-05-07T12:06:35;10.18;;;4.60;;
36597;SDS011;22607;49.550;11.940;2023-05-07T12:09:08;9.38;;;3.22;;
36597;SDS011;22607;49.550;11.940;2023-05-07T12:11:41;8.82;;;4.05;;
36597;SDS011;22607;49.550;11.940;2023-05-07T12:14:12;8.70;;;4.38;;
36597;SDS011;22607;49.550;11.940;2023-05-07T12:16:39;8.75;;;4.78;;
36597;SDS011;22607;49.550;11.940;2023-05-07T12:19:07;9.25;;;4.05;;
36597;SDS011;22607;49.550;11.940;2023-05-07T12:21:42;8.60;;;4.28;;
36597;SDS011;22607;49.550;11.940;2023-05-07T12:24:08;7.40;;;3.60;;
36597;SDS011;22607;49.550;11.940;2023-05-07T12:29:07;8.32;;;3.95;;
36597;SDS011;22607;49.550;11.940;2023-05-07T12:31:35;8.73;;;3.83;;
36597;SDS011;22607;49.550;11.940;2023-05-07T12:34:02;8.80;;;3.75;;
36597;SDS011;22607;49.550;11.940;2023-05-07T12:36:36;7.88;;;3.50;;
36597;SDS011;22607;49.550;11.940;2023-05-07T12:39:04;8.43;;;2.95;;
36597;SDS011;22607;49.550;11.940;2023-05-07T12:44:31;6.95;;;3.10;;
36597;SDS011;22607;49.550;11.940;2023-05-07T12:47:01;7.82;;;3.38;;
36597;SDS011;22607;49.550;11.940;2023-05-07T12:49:29;7.30;;;2.63;;
36597;SDS011;22607;49.550;11.940;2023-05-07T12:51:56;7.10;;;2.85;;
36597;SDS011;22607;49.550;11.940;2023-05-07T12:54:40;7.50;;;2.67;;
36597;SDS011;22607;49.550;11.940;2023-05-07T12:57:08;7.93;;;2.80;;
36597;SDS011;22607;49.550;11.940;2023-05-07T12:59:39;7.20;;;2.70;;
36597;SDS011;22607;49.550;11.940;2023-05-07T13:02:07;6.80;;;2.88;;
36597;SDS011;22607;49.550;11.940;2023-05-07T13:04:34;7.15;;;3.10;;
36597;SDS011;22607;49.550;11.940;2023-05-07T13:07:01;7.40;;;2.78;;
36597;SDS011;22607;49.550;11.940;2023-05-07T13:09:28;7.85;;;2.78;;
36597;SDS011;22607;49.550;11.940;2023-05-07T13:11:55;7.00;;;2.90;;
36597;SDS011;22607;49.550;11.940;2023-05-07T13:14:22;7.63;;;2.95;;
36597;SDS011;22607;49.550;11.940;2023-05-07T13:16:49;8.02;;;3.13;;
36597;SDS011;22607;49.550;11.940;2023-05-07T13:19:16;8.27;;;3.00;;
36597;SDS011;22607;49.550;11.940;2023-05-07T13:21:43;7.00;;;2.60;;
36597;SDS011;22607;49.550;11.940;2023-05-07T13:24:10;7.10;;;3.10;;
36597;SDS011;22607;49.550;11.940;2023-05-07T13:26:36;7.47;;;2.88;;
36597;SDS011;22607;49.550;11.940;2023-05-07T13:29:03;7.10;;;2.83;;
36597;SDS011;22607;49.550;11.940;2023-05-07T13:31:29;6.85;;;2.90;;
36597;SDS011;22607;49.550;11.940;2023-05-07T13:33:58;7.30;;;2.80;;
36597;SDS011;22607;49.550;11.940;2023-05-07T13:36:24;6.60;;;2.60;;
36597;SDS011;22607;49.550;11.940;2023-05-07T13:38:57;7.25;;;2.70;;
36597;SDS011;22607;49.550;11.940;2023-05-07T13:41:25;6.38;;;2.70;;
36597;SDS011;22607;49.550;11.940;2023-05-07T13:43:52;7.47;;;2.83;;
36597;SDS011;22607;49.550;11.940;2023-05-07T13:46:18;7.32;;;3.08;;
36597;SDS011;22607;49.550;11.940;2023-05-07T13:48:45;9.43;;;3.30;;
36597;SDS011;22607;49.550;11.940;2023-05-07T13:51:11;7.10;;;2.78;;
36597;SDS011;22607;49.550;11.940;2023-05-07T13:53:38;7.30;;;2.80;;
36597;SDS011;22607;49.550;11.940;2023-05-07T13:56:05;9.20;;;3.00;;
36597;SDS011;22607;49.550;11.940;2023-05-07T13:58:31;6.70;;;2.53;;
36597;SDS011;22607;49.550;11.940;2023-05-07T14:00:59;7.03;;;2.40;;
36597;SDS011;22607;49.550;11.940;2023-05-07T14:03:25;7.15;;;2.75;;
36597;SDS011;22607;49.550;11.940;2023-05-07T14:05:52;6.03;;;2.22;;
36597;SDS011;22607;49.550;11.940;2023-05-07T14:08:18;6.78;;;2.30;;
36597;SDS011;22607;49.550;11.940;2023-05-07T14:10:46;6.28;;;2.53;;
36597;SDS011;22607;49.550;11.940;2023-05-07T14:13:12;6.68;;;2.42;;
36597;SDS011;22607;49.550;11.940;2023-05-07T14:15:39;7.07;;;2.45;;
36597;SDS011;22607;49.550;11.940;2023-05-07T14:18:06;6.80;;;2.50;;
36597;SDS011;22607;49.550;11.940;2023-05-07T14:20:33;6.90;;;2.50;;
36597;SDS011;22607;49.550;11.940;2023-05-07T14:23:02;6.60;;;2.40;;
36597;SDS011;22607;49.550;11.940;2023-05-07T14:25:29;6.93;;;2.42;;
36597;SDS011;22607;49.550;11.940;2023-05-07T14:28:02;7.65;;;2.15;;
36597;SDS011;22607;49.550;11.940;2023-05-07T14:30:28;6.65;;;2.30;;
36597;SDS011;22607;49.550;11.940;2023-05-07T14:32:55;7.40;;;2.47;;
36597;SDS011;22607;49.550;11.940;2023-05-07T14:35:23;6.75;;;2.33;;
36597;SDS011;22607;49.550;11.940;2023-05-07T14:37:50;6.82;;;2.65;;
36597;SDS011;22607;49.550;11.940;2023-05-07T14:40:16;6.80;;;2.20;;
36597;SDS011;22607;49.550;11.940;2023-05-07T14:42:43;7.03;;;2.60;;
36597;SDS011;22607;49.550;11.940;2023-05-07T14:45:09;6.72;;;2.53;;
36597;SDS011;22607;49.550;11.940;2023-05-07T14:47:42;6.43;;;2.40;;
36597;SDS011;22607;49.550;11.940;2023-05-07T14:50:08;6.38;;;2.20;;
36597;SDS011;22607;49.550;11.940;2023-05-07T14:52:35;6.68;;;2.20;;
36597;SDS011;22607;49.550;11.940;2023-05-07T14:55:03;7.25;;;2.83;;
36597;SDS011;22607;49.550;11.940;2023-05-07T14:57:30;7.38;;;2.83;;
36597;SDS011;22607;49.550;11.940;2023-05-07T15:00:06;8.60;;;3.30;;
36597;SDS011;22607;49.550;11.940;2023-05-07T15:02:34;7.53;;;2.95;;
36597;SDS011;22607;49.550;11.940;2023-05-07T15:05:01;7.22;;;3.10;;
36597;SDS011;22607;49.550;11.940;2023-05-07T15:07:28;7.10;;;3.20;;
36597;SDS011;22607;49.550;11.940;2023-05-07T15:09:54;7.13;;;2.83;;
36597;SDS011;22607;49.550;11.940;2023-05-07T15:12:21;7.70;;;2.92;;